sensor_id;sensor_type;location;lat;lon;timestamp;pressure;altitude;pressure_sealevel;temperature;humidity
23446;BME280;11895;48.738;9.320;2022-10-16T00:01:36;98665.59;;;18.69;100.00
23446;BME280;11895;48.738;9.320;2022-10-16T00:04:03;98668.06;;;18.61;100.00
23446;BME280;11895;48.738;9.320;2022-10-16T00:06:31;98658.28;;;18.69;100.00
23446;BME280;11895;48.738;9.320;2022-10-16T00:08:58;98665.47;;;18.70;100.00
23446;BME280;11895;48.738;9.320;2022-10-16T00:11:29;98670.69;;;18.73;100.00
23446;BME280;11895;48.738;9.320;2022-10-16T00:14:02;98658.28;;;18.69;100.00
23446;BME280;11895;48.738;9.320;2022-10-16T00:16:31;98664.72;;;18.57;100.00
23446;BME280;11895;48.738;9.320;2022-10-16T00:18:58;98666.84;;;18.54;100.00
23446;BME280;11895;48.738;9.320;2022-10-16T00:21:27;98667.56;;;18.44;100.00
23446;BME280;11895;48.738;9.320;2022-10-16T00:24:14;98671.81;;;18.37;100.00
23446;BME280;11895;48.738;9.320;2022-10-16T00:26:41;98676.59;;;18.22;100.00
23446;BME280;11895;48.738;9.320;2022-10-16T00:29:08;98677.34;;;18.02;100.00
23446;BME280;11895;48.738;9.320;2022-10-16T00:31:35;98677.38;;;18.13;100.00
23446;BME280;11895;48.738;9.320;2022-10-16T00:34:03;98678.59;;;18.20;100.00
23446;BME280;11895;48.738;9.320;2022-10-16T00:36:30;98678.59;;;18.20;100.00
23446;BME280;11895;48.738;9.320;2022-10-16T00:38:59;98684.06;;;18.20;100.00
23446;BME280;11895;48.738;9.320;2022-10-16T00:41:33;98680.81;;;18.15;100.00
23446;BME280;11895;48.738;9.320;2022-10-16T00:44:03;98670.94;;;18.14;100.00
23446;BME280;11895;48.738;9.320;2022-10-16T00:46:51;98669.19;;;18.13;100.00
23446;BME280;11895;48.738;9.320;2022-10-16T00:49:20;98670.28;;;18.11;100.00
23446;BME280;11895;48.738;9.320;2022-10-16T00:51:50;98666.34;;;18.04;100.00
23446;BME280;11895;48.738;9.320;2022-10-16T00:54:27;98666.06;;;18.07;100.00
23446;BME280;11895;48.738;9.320;2022-10-16T00:57:05;98676.09;;;18.06;100.00
23446;BME280;11895;48.738;9.320;2022-10-16T00:59:36;98677.25;;;18.04;100.00
23446;BME280;11895;48.738;9.320;2022-10-16T01:02:06;98664.84;;;18.00;100.00
23446;BME280;11895;48.738;9.320;2022-10-16T01:04:39;98660.63;;;17.95;100.00
23446;BME280;11895;48.738;9.320;2022-10-16T01:13:11;98684.72;;;17.89;100.00
23446;BME280;11895;48.738;9.320;2022-10-16T01:16:03;98687.59;;;17.87;100.00
23446;BME280;11895;48.738;9.320;2022-10-16T01:18:54;98700.00;;;17.91;100.00
23446;BME280;11895;48.738;9.320;2022-10-16T01:21:46;98691.09;;;17.89;100.00
23446;BME280;11895;48.738;9.320;2022-10-16T01:24:55;98695.91;;;17.86;100.00
23446;BME280;11895;48.738;9.320;2022-10-16T01:27:33;98695.91;;;17.86;100.00
23446;BME280;11895;48.738;9.320;2022-10-16T01:30:26;98700.47;;;17.85;100.00
23446;BME280;11895;48.738;9.320;2022-10-16T01:33:00;98708.53;;;17.87;100.00
23446;BME280;11895;48.738;9.320;2022-10-16T01:35:43;98688.94;;;17.82;100.00
23446;BME280;11895;48.738;9.320;2022-10-16T01:38:20;98688.22;;;17.80;100.00
23446;BME280;11895;48.738;9.320;2022-10-16T01:40:53;98691.38;;;17.73;100.00
23446;BME280;11895;48.738;9.320;2022-10-16T01:43:33;98703.16;;;17.74;100.00
23446;BME280;11895;48.738;9.320;2022-10-16T01:46:03;98697.78;;;17.72;100.00
23446;BME280;11895;48.738;9.320;2022-10-16T01:48:32;98684.41;;;17.69;100.00
23446;BME280;11895;48.738;9.320;2022-10-16T01:51:14;98667.53;;;17.53;100.00
23446;BME280;11895;48.738;9.320;2022-10-16T01:53:45;98673.00;;;17.64;100.00
23446;BME280;11895;48.738;9.320;2022-10-16T01:56:16;98679.91;;;17.57;100.00
23446;BME280;11895;48.738;9.320;2022-10-16T01:58:49;98672.13;;;17.64;100.00
23446;BME280;11895;48.738;9.320;2022-10-16T02:02:57;98674.00;;;17.63;100.00
23446;BME280;11895;48.738;9.320;2022-10-16T02:05:29;98667.09;;;17.70;100.00
23446;BME280;11895;48.738;9.320;2022-10-16T02:07:59;98670.53;;;17.61;100.00
23446;BME280;11895;48.738;9.320;2022-10-16T02:10:31;98663.59;;;17.68;100.00
23446;BME280;11895;48.738;9.320;2022-10-16T02:13:03;98668.81;;;17.71;100.00
23446;BME280;11895;48.738;9.320;2022-10-16T02:15:33;98675.03;;;17.73;100.00
23446;BME280;11895;48.738;9.320;2022-10-16T02:18:03;98675.03;;;17.73;100.00
23446;BME280;11895;48.738;9.320;2022-10-16T02:20:46;98665.41;;;17.81;100.00
23446;BME280;11895;48.738;9.320;2022-10-16T02:26:15;98685.47;;;17.80;100.00
23446;BME280;11895;48.738;9.320;2022-10-16T02:28:48;98685.47;;;17.80;100.00
23446;BME280;11895;48.738;9.320;2022-10-16T02:31:24;98678.91;;;17.82;100.00
23446;BME280;11895;48.738;9.320;2022-10-16T02:33:58;98681.25;;;17.76;100.00
23446;BME280;11895;48.738;9.320;2022-10-16T02:36:26;98681.50;;;17.84;100.00
23446;BME280;11895;48.738;9.320;2022-10-16T02:38:54;98678.69;;;17.85;100.00
23446;BME280;11895;48.738;9.320;2022-10-16T02:41:23;98669.59;;;17.73;100.00
23446;BME280;11895;48.738;9.320;2022-10-16T02:43:50;98664.06;;;17.51;100.00
23446;BME280;11895;48.738;9.320;2022-10-16T02:46:18;98660.84;;;17.46;100.00
23446;BME280;11895;48.738;9.320;2022-10-16T02:48:45;98667.38;;;17.43;100.00
23446;BME280;11895;48.738;9.320;2022-10-16T02:51:12;98669.09;;;17.44;100.00
23446;BME280;11895;48.738;9.320;2022-10-16T02:53:39;98673.47;;;17.47;100.00
23446;BME280;11895;48.738;9.320;2022-10-16T02:56:07;98669.59;;;17.50;100.00
23446;BME280;11895;48.738;9.320;2022-10-16T02:58:34;98677.19;;;17.57;100.00
23446;BME280;11895;48.738;9.320;2022-10-16T03:01:27;98686.00;;;17.61;100.00
23446;BME280;11895;48.738;9.320;2022-10-16T03:03:54;98684.84;;;17.52;100.00
23446;BME280;11895;48.738;9.320;2022-10-16T03:06:21;98680.25;;;17.41;100.00
23446;BME280;11895;48.738;9.320;2022-10-16T03:08:48;98689.53;;;17.50;100.00
23446;BME280;11895;48.738;9.320;2022-10-16T03:11:16;98684.63;;;17.55;100.00
23446;BME280;11895;48.738;9.320;2022-10-16T03:13:45;98690.81;;;17.57;100.00
23446;BME280;11895;48.738;9.320;2022-10-16T03:16:15;98692.31;;;17.61;100.00
23446;BME280;11895;48.738;9.320;2022-10-16T03:18:42;98677.47;;;17.65;100.00
23446;BME280;11895;48.738;9.320;2022-10-16T03:21:09;98682.94;;;17.65;100.00
23446;BME280;11895;48.738;9.320;2022-10-16T03:23:36;98682.94;;;17.65;100.00
23446;BME280;11895;48.738;9.320;2022-10-16T03:26:03;98681.69;;;17.69;100.00
23446;BME280;11895;48.738;9.320;2022-10-16T03:28:31;98688.13;;;17.68;100.00
23446;BME280;11895;48.738;9.320;2022-10-16T03:30:58;98685.41;;;17.68;100.00
23446;BME280;11895;48.738;9.320;2022-10-16T03:33:25;98682.94;;;17.65;100.00
23446;BME280;11895;48.738;9.320;2022-10-16T03:36:00;98687.25;;;17.68;100.00
23446;BME280;11895;48.738;9.320;2022-10-16T03:39:08;98686.00;;;17.61;100.00
23446;BME280;11895;48.738;9.320;2022-10-16T03:41:45;98676.06;;;17.60;100.00
23446;BME280;11895;48.738;9.320;2022-10-16T03:44:13;98680.44;;;17.62;100.00
23446;BME280;11895;48.738;9.320;2022-10-16T03:46:41;98686.63;;;17.64;100.00
23446;BME280;11895;48.738;9.320;2022-10-16T03:49:08;98688.84;;;17.59;100.00
23446;BME280;11895;48.738;9.320;2022-10-16T03:51:36;98699.50;;;17.62;100.00
23446;BME280;11895;48.738;9.320;2022-10-16T03:54:03;98694.38;;;17.46;100.00
23446;BME280;11895;48.738;9.320;2022-10-16T03:56:30;98688.47;;;17.05;100.00
23446;BME280;11895;48.738;9.320;2022-10-16T03:58:57;98693.63;;;17.20;100.00
23446;BME280;11895;48.738;9.320;2022-10-16T04:01:24;98694.91;;;17.28;100.00
23446;BME280;11895;48.738;9.320;2022-10-16T04:03:52;98699.88;;;17.34;100.00
23446;BME280;11895;48.738;9.320;2022-10-16T04:06:19;98699.88;;;17.34;100.00
23446;BME280;11895;48.738;9.320;2022-10-16T04:08:46;98703.38;;;17.36;100.00
23446;BME280;11895;48.738;9.320;2022-10-16T04:11:13;98695.28;;;17.34;100.00
23446;BME280;11895;48.738;9.320;2022-10-16T04:13:40;98695.66;;;17.30;100.00
23446;BME280;11895;48.738;9.320;2022-10-16T04:16:08;98695.13;;;17.25;100.00
23446;BME280;11895;48.738;9.320;2022-10-16T04:18:35;98698.84;;;17.24;100.00
23446;BME280;11895;48.738;9.320;2022-10-16T04:25:36;98705.44;;;17.32;100.00
23446;BME280;11895;48.738;9.320;2022-10-16T04:28:03;98709.03;;;17.33;100.00
23446;BME280;11895;48.738;9.320;2022-10-16T04:30:30;98710.75;;;17.34;100.00
23446;BME280;11895;48.738;9.320;2022-10-16T04:32:57;98708.81;;;17.36;100.00
23446;BME280;11895;48.738;9.320;2022-10-16T04:35:24;98703.13;;;17.39;100.00
23446;BME280;11895;48.738;9.320;2022-10-16T04:37:54;98706.69;;;17.39;100.00
23446;BME280;11895;48.738;9.320;2022-10-16T04:41:34;98715.97;;;16.89;100.00
23446;BME280;11895;48.738;9.320;2022-10-16T04:45:00;98710.88;;;17.08;100.00
23446;BME280;11895;48.738;9.320;2022-10-16T04:48:10;98704.41;;;17.22;100.00
23446;BME280;11895;48.738;9.320;2022-10-16T04:51:57;98716.91;;;17.25;100.00
23446;BME280;11895;48.738;9.320;2022-10-16T04:54:50;98708.53;;;17.28;100.00
23446;BME280;11895;48.738;9.320;2022-10-16T04:58:10;98715.31;;;17.22;100.00
23446;BME280;11895;48.738;9.320;2022-10-16T05:01:39;98721.88;;;17.31;100.00
23446;BME280;11895;48.738;9.320;2022-10-16T05:04:52;98724.84;;;17.28;100.00
23446;BME280;11895;48.738;9.320;2022-10-16T05:07:54;98729.53;;;17.26;100.00
23446;BME280;11895;48.738;9.320;2022-10-16T05:11:55;98729.94;;;17.32;100.00
23446;BME280;11895;48.738;9.320;2022-10-16T05:14:25;98741.19;;;17.28;100.00
23446;BME280;11895;48.738;9.320;2022-10-16T05:17:53;98742.91;;;16.92;100.00
23446;BME280;11895;48.738;9.320;2022-10-16T05:20:24;98741.50;;;16.99;100.00
23446;BME280;11895;48.738;9.320;2022-10-16T05:22:58;98743.53;;;17.08;100.00
23446;BME280;11895;48.738;9.320;2022-10-16T05:25:36;98740.13;;;17.17;100.00
23446;BME280;11895;48.738;9.320;2022-10-16T05:29:05;98731.50;;;17.24;100.00
23446;BME280;11895;48.738;9.320;2022-10-16T05:31:33;98729.53;;;17.26;100.00
23446;BME280;11895;48.738;9.320;2022-10-16T05:34:02;98729.31;;;17.29;100.00
23446;BME280;11895;48.738;9.320;2022-10-16T05:36:35;98733.50;;;17.21;100.00
23446;BME280;11895;48.738;9.320;2022-10-16T05:39:10;98733.69;;;17.18;100.00
23446;BME280;11895;48.738;9.320;2022-10-16T05:41:46;98733.91;;;17.15;100.00
23446;BME280;11895;48.738;9.320;2022-10-16T05:44:13;98739.38;;;17.15;100.00
23446;BME280;11895;48.738;9.320;2022-10-16T05:46:40;98742.34;;;17.12;100.00
23446;BME280;11895;48.738;9.320;2022-10-16T05:49:08;98745.41;;;17.08;100.00
23446;BME280;11895;48.738;9.320;2022-10-16T05:51:35;98746.88;;;16.88;100.00
23446;BME280;11895;48.738;9.320;2022-10-16T05:54:02;98756.53;;;16.92;100.00
23446;BME280;11895;48.738;9.320;2022-10-16T05:56:30;98758.34;;;17.04;100.00
23446;BME280;11895;48.738;9.320;2022-10-16T05:58:57;98754.91;;;17.02;100.00
23446;BME280;11895;48.738;9.320;2022-10-16T06:01:24;98760.75;;;16.96;100.00
23446;BME280;11895;48.738;9.320;2022-10-16T06:03:52;98755.31;;;16.96;100.00
23446;BME280;11895;48.738;9.320;2022-10-16T06:06:22;98763.72;;;16.93;100.00
23446;BME280;11895;48.738;9.320;2022-10-16T06:08:54;98768.16;;;17.07;100.00
23446;BME280;11895;48.738;9.320;2022-10-16T06:11:25;98769.31;;;17.15;100.00
23446;BME280;11895;48.738;9.320;2022-10-16T06:13:55;98775.75;;;17.14;100.00
23446;BME280;11895;48.738;9.320;2022-10-16T06:16:25;98773.22;;;17.11;100.00
23446;BME280;11895;48.738;9.320;2022-10-16T06:18:54;98771.28;;;17.13;100.00
23446;BME280;11895;48.738;9.320;2022-10-16T06:21:28;98772.00;;;17.28;100.00
23446;BME280;11895;48.738;9.320;2022-10-16T06:23:57;98782.34;;;17.23;100.00
23446;BME280;11895;48.738;9.320;2022-10-16T06:26:26;98782.88;;;17.28;100.00
23446;BME280;11895;48.738;9.320;2022-10-16T06:28:55;98785.03;;;17.36;100.00
23446;BME280;11895;48.738;9.320;2022-10-16T06:31:25;98787.31;;;17.42;100.00
23446;BME280;11895;48.738;9.320;2022-10-16T06:33:56;98785.56;;;17.41;100.00
23446;BME280;11895;48.738;9.320;2022-10-16T06:36:24;98783.88;;;17.51;100.00
23446;BME280;11895;48.738;9.320;2022-10-16T06:38:52;98788.47;;;17.51;100.00
23446;BME280;11895;48.738;9.320;2022-10-16T06:41:21;98789.25;;;17.64;100.00
23446;BME280;11895;48.738;9.320;2022-10-16T06:43:50;98787.50;;;17.76;100.00
23446;BME280;11895;48.738;9.320;2022-10-16T06:46:24;98787.25;;;17.79;100.00
23446;BME280;11895;48.738;9.320;2022-10-16T06:49:21;98795.72;;;17.87;100.00
23446;BME280;11895;48.738;9.320;2022-10-16T06:52:02;98802.69;;;17.91;100.00
23446;BME280;11895;48.738;9.320;2022-10-16T06:54:30;98809.16;;;18.01;100.00
23446;BME280;11895;48.738;9.320;2022-10-16T06:57:10;98814.28;;;17.82;100.00
23446;BME280;11895;48.738;9.320;2022-10-16T06:59:38;98809.97;;;17.66;100.00
23446;BME280;11895;48.738;9.320;2022-10-16T07:02:05;98820.97;;;17.89;100.00
23446;BME280;11895;48.738;9.320;2022-10-16T07:04:35;98822.59;;;18.15;100.00
23446;BME280;11895;48.738;9.320;2022-10-16T07:07:03;98822.59;;;18.27;100.00
23446;BME280;11895;48.738;9.320;2022-10-16T07:09:35;98830.78;;;18.27;100.00
23446;BME280;11895;48.738;9.320;2022-10-16T07:12:02;98833.94;;;18.44;100.00
23446;BME280;11895;48.738;9.320;2022-10-16T07:14:30;98836.09;;;18.52;100.00
23446;BME280;11895;48.738;9.320;2022-10-16T07:16:57;98836.59;;;18.57;100.00
23446;BME280;11895;48.738;9.320;2022-10-16T07:19:24;98836.31;;;18.49;100.00
23446;BME280;11895;48.738;9.320;2022-10-16T07:21:59;98838.38;;;18.34;100.00
23446;BME280;11895;48.738;9.320;2022-10-16T07:29:25;98854.41;;;18.50;100.00
23446;BME280;11895;48.738;9.320;2022-10-16T07:32:46;98864.97;;;18.66;100.00
23446;BME280;11895;48.738;9.320;2022-10-16T07:45:15;98881.56;;;18.98;100.00
23446;BME280;11895;48.738;9.320;2022-10-16T07:47:44;98885.78;;;19.13;100.00
23446;BME280;11895;48.738;9.320;2022-10-16T07:50:11;98884.31;;;19.20;100.00
23446;BME280;11895;48.738;9.320;2022-10-16T07:52:38;98884.44;;;19.19;100.00
23446;BME280;11895;48.738;9.320;2022-10-16T07:55:06;98880.09;;;19.16;100.00
23446;BME280;11895;48.738;9.320;2022-10-16T07:57:33;98882.31;;;19.00;100.00
23446;BME280;11895;48.738;9.320;2022-10-16T08:00:00;98887.91;;;19.21;100.00
23446;BME280;11895;48.738;9.320;2022-10-16T08:02:37;98898.19;;;19.51;100.00
23446;BME280;11895;48.738;9.320;2022-10-16T08:05:05;98892.75;;;19.62;100.00
23446;BME280;11895;48.738;9.320;2022-10-16T08:07:33;98897.94;;;19.88;100.00
23446;BME280;11895;48.738;9.320;2022-10-16T08:10:00;98892.91;;;20.04;100.00
23446;BME280;11895;48.738;9.320;2022-10-16T08:12:28;98891.28;;;20.01;100.00
23446;BME280;11895;48.738;9.320;2022-10-16T08:14:56;98892.38;;;20.10;100.00
23446;BME280;11895;48.738;9.320;2022-10-16T08:17:23;98898.81;;;20.20;100.00
23446;BME280;11895;48.738;9.320;2022-10-16T08:19:51;98898.97;;;20.40;100.00
23446;BME280;11895;48.738;9.320;2022-10-16T08:22:18;98894.56;;;20.27;100.00
23446;BME280;11895;48.738;9.320;2022-10-16T08:24:45;98906.22;;;20.29;100.00
23446;BME280;11895;48.738;9.320;2022-10-16T08:27:13;98895.25;;;20.41;100.00
23446;BME280;11895;48.738;9.320;2022-10-16T08:29:41;98902.56;;;20.51;100.00
23446;BME280;11895;48.738;9.320;2022-10-16T08:32:07;98902.81;;;20.16;100.00
23446;BME280;11895;48.738;9.320;2022-10-16T08:34:34;98906.69;;;20.46;100.00
23446;BME280;11895;48.738;9.320;2022-10-16T08:37:02;98904.91;;;20.98;100.00
23446;BME280;11895;48.738;9.320;2022-10-16T08:39:29;98896.97;;;20.95;100.00
23446;BME280;11895;48.738;9.320;2022-10-16T08:50:14;98914.28;;;20.74;100.00
23446;BME280;11895;48.738;9.320;2022-10-16T08:52:46;98917.06;;;21.05;100.00
23446;BME280;11895;48.738;9.320;2022-10-16T08:55:30;98925.06;;;21.39;100.00
23446;BME280;11895;48.738;9.320;2022-10-16T08:58:01;98917.28;;;21.44;100.00
23446;BME280;11895;48.738;9.320;2022-10-16T09:00:29;98916.44;;;21.43;100.00
23446;BME280;11895;48.738;9.320;2022-10-16T09:12:23;98936.66;;;21.52;100.00
23446;BME280;11895;48.738;9.320;2022-10-16T09:17:52;98932.31;;;22.59;100.00
23446;BME280;11895;48.738;9.320;2022-10-16T09:23:12;98930.00;;;22.64;100.00
23446;BME280;11895;48.738;9.320;2022-10-16T09:25:45;98931.13;;;22.71;100.00
23446;BME280;11895;48.738;9.320;2022-10-16T09:28:15;98932.16;;;22.90;100.00
23446;BME280;11895;48.738;9.320;2022-10-16T09:30:45;98928.66;;;23.17;100.00
23446;BME280;11895;48.738;9.320;2022-10-16T09:33:13;98938.25;;;23.40;100.00
23446;BME280;11895;48.738;9.320;2022-10-16T09:35:53;98940.56;;;23.45;100.00
23446;BME280;11895;48.738;9.320;2022-10-16T09:38:42;98942.13;;;23.94;100.00
23446;BME280;11895;48.738;9.320;2022-10-16T09:41:16;98939.50;;;24.20;100.00
23446;BME280;11895;48.738;9.320;2022-10-16T09:46:33;98951.06;;;24.24;100.00
23446;BME280;11895;48.738;9.320;2022-10-16T09:49:26;98941.53;;;24.46;98.14
23446;BME280;11895;48.738;9.320;2022-10-16T09:52:12;98952.84;;;24.15;99.87
23446;BME280;11895;48.738;9.320;2022-10-16T09:54:51;98944.94;;;23.38;100.00
23446;BME280;11895;48.738;9.320;2022-10-16T09:57:20;98942.00;;;23.49;100.00
23446;BME280;11895;48.738;9.320;2022-10-16T09:59:50;98943.63;;;23.42;100.00
23446;BME280;11895;48.738;9.320;2022-10-16T10:02:30;98942.78;;;23.31;100.00
23446;BME280;11895;48.738;9.320;2022-10-16T10:05:01;98943.31;;;23.45;100.00
23446;BME280;11895;48.738;9.320;2022-10-16T10:07:35;98945.22;;;23.81;100.00
23446;BME280;11895;48.738;9.320;2022-10-16T10:10:18;98951.09;;;24.42;100.00
23446;BME280;11895;48.738;9.320;2022-10-16T10:12:47;98952.97;;;24.95;100.00
23446;BME280;11895;48.738;9.320;2022-10-16T10:15:15;98954.56;;;24.97;93.78
23446;BME280;11895;48.738;9.320;2022-10-16T10:17:56;98953.03;;;25.38;91.42
23446;BME280;11895;48.738;9.320;2022-10-16T10:20:30;98949.28;;;25.48;92.76
23446;BME280;11895;48.738;9.320;2022-10-16T10:28:50;98943.31;;;25.86;90.18
23446;BME280;11895;48.738;9.320;2022-10-16T10:38:01;98941.25;;;25.62;84.55
23446;BME280;11895;48.738;9.320;2022-10-16T10:41:11;98945.22;;;24.90;90.66
23446;BME280;11895;48.738;9.320;2022-10-16T10:44:11;98948.22;;;25.75;86.96
23446;BME280;11895;48.738;9.320;2022-10-16T10:50:02;98951.44;;;25.88;85.10
23446;BME280;11895;48.738;9.320;2022-10-16T10:52:43;98948.97;;;26.19;87.11
23446;BME280;11895;48.738;9.320;2022-10-16T11:07:18;98948.75;;;26.63;77.76
23446;BME280;11895;48.738;9.320;2022-10-16T11:09:52;98943.25;;;26.87;75.16
23446;BME280;11895;48.738;9.320;2022-10-16T11:17:39;98936.69;;;27.21;71.21
23446;BME280;11895;48.738;9.320;2022-10-16T11:22:47;98935.91;;;26.37;73.84
23446;BME280;11895;48.738;9.320;2022-10-16T11:25:23;98932.72;;;26.75;71.04
23446;BME280;11895;48.738;9.320;2022-10-16T11:30:46;98924.84;;;27.68;69.45
23446;BME280;11895;48.738;9.320;2022-10-16T11:36:39;98924.53;;;27.63;65.58
23446;BME280;11895;48.738;9.320;2022-10-16T11:39:19;98926.25;;;27.72;66.98
23446;BME280;11895;48.738;9.320;2022-10-16T11:42:27;98927.91;;;27.89;64.80
23446;BME280;11895;48.738;9.320;2022-10-16T11:48:39;98929.00;;;27.80;63.04
23446;BME280;11895;48.738;9.320;2022-10-16T11:54:49;98924.16;;;28.13;61.78
23446;BME280;11895;48.738;9.320;2022-10-16T11:57:24;98919.72;;;27.49;61.27
23446;BME280;11895;48.738;9.320;2022-10-16T12:00:14;98919.81;;;28.19;63.60
23446;BME280;11895;48.738;9.320;2022-10-16T12:05:36;98906.91;;;30.81;53.59
23446;BME280;11895;48.738;9.320;2022-10-16T12:08:12;98908.50;;;30.54;49.94
23446;BME280;11895;48.738;9.320;2022-10-16T12:10:45;98907.72;;;31.24;49.59
23446;BME280;11895;48.738;9.320;2022-10-16T12:18:42;98900.66;;;32.93;43.61
23446;BME280;11895;48.738;9.320;2022-10-16T12:21:17;98911.97;;;33.91;41.65
23446;BME280;11895;48.738;9.320;2022-10-16T12:23:51;98899.84;;;34.69;38.97
23446;BME280;11895;48.738;9.320;2022-10-16T12:26:28;98905.63;;;34.29;39.73
23446;BME280;11895;48.738;9.320;2022-10-16T12:29:22;98901.28;;;35.16;39.55
23446;BME280;11895;48.738;9.320;2022-10-16T12:31:56;98900.34;;;35.22;36.35
23446;BME280;11895;48.738;9.320;2022-10-16T12:37:36;98902.41;;;35.09;38.27
23446;BME280;11895;48.738;9.320;2022-10-16T12:40:14;98902.13;;;33.82;37.83
23446;BME280;11895;48.738;9.320;2022-10-16T12:42:43;98905.31;;;32.66;39.60
23446;BME280;11895;48.738;9.320;2022-10-16T12:45:33;98909.03;;;31.84;43.88
23446;BME280;11895;48.738;9.320;2022-10-16T12:48:04;98908.19;;;31.56;43.36
23446;BME280;11895;48.738;9.320;2022-10-16T12:50:45;98911.28;;;32.09;45.03
23446;BME280;11895;48.738;9.320;2022-10-16T12:53:21;98903.66;;;33.38;41.32
23446;BME280;11895;48.738;9.320;2022-10-16T12:56:00;98908.06;;;34.12;38.99
23446;BME280;11895;48.738;9.320;2022-10-16T12:58:42;98912.63;;;33.87;41.18
23446;BME280;11895;48.738;9.320;2022-10-16T13:01:25;98909.41;;;32.64;40.55
23446;BME280;11895;48.738;9.320;2022-10-16T13:04:04;98907.59;;;32.43;42.92
23446;BME280;11895;48.738;9.320;2022-10-16T13:06:57;98915.78;;;32.10;44.46
23446;BME280;11895;48.738;9.320;2022-10-16T13:19:06;98921.44;;;31.04;45.67
23446;BME280;11895;48.738;9.320;2022-10-16T13:24:48;98918.13;;;31.71;46.59
23446;BME280;11895;48.738;9.320;2022-10-16T13:27:35;98913.16;;;30.89;43.99
23446;BME280;11895;48.738;9.320;2022-10-16T13:30:50;98915.56;;;31.70;44.70
23446;BME280;11895;48.738;9.320;2022-10-16T13:33:33;98918.91;;;31.59;43.19
23446;BME280;11895;48.738;9.320;2022-10-16T13:36:25;98914.34;;;32.75;43.86
23446;BME280;11895;48.738;9.320;2022-10-16T13:39:10;98915.41;;;32.87;40.46
23446;BME280;11895;48.738;9.320;2022-10-16T13:42:11;98916.34;;;33.14;42.18
23446;BME280;11895;48.738;9.320;2022-10-16T13:44:48;98919.59;;;33.44;42.08
23446;BME280;11895;48.738;9.320;2022-10-16T13:47:27;98916.38;;;31.64;40.64
23446;BME280;11895;48.738;9.320;2022-10-16T13:50:09;98916.28;;;30.22;43.28
23446;BME280;11895;48.738;9.320;2022-10-16T13:52:39;98920.00;;;30.00;45.17
23446;BME280;11895;48.738;9.320;2022-10-16T13:55:16;98913.06;;;30.76;44.85
23446;BME280;11895;48.738;9.320;2022-10-16T13:57:45;98918.66;;;30.83;44.33
23446;BME280;11895;48.738;9.320;2022-10-16T14:02:53;98912.66;;;30.64;43.96
23446;BME280;11895;48.738;9.320;2022-10-16T14:05:24;98916.16;;;30.88;46.69
23446;BME280;11895;48.738;9.320;2022-10-16T14:07:54;98920.72;;;30.74;45.18
23446;BME280;11895;48.738;9.320;2022-10-16T14:10:57;98915.44;;;31.01;45.70
23446;BME280;11895;48.738;9.320;2022-10-16T14:14:31;98914.47;;;31.36;46.14
23446;BME280;11895;48.738;9.320;2022-10-16T14:17:30;98917.28;;;31.15;44.77
23446;BME280;11895;48.738;9.320;2022-10-16T14:20:12;98910.25;;;30.97;45.96
23446;BME280;11895;48.738;9.320;2022-10-16T14:26:19;98922.91;;;30.79;47.45
23446;BME280;11895;48.738;9.320;2022-10-16T14:28:49;98921.22;;;30.63;49.08
23446;BME280;11895;48.738;9.320;2022-10-16T14:32:23;98924.59;;;29.63;50.49
23446;BME280;11895;48.738;9.320;2022-10-16T14:35:01;98922.19;;;28.84;51.79
23446;BME280;11895;48.738;9.320;2022-10-16T14:37:29;98915.78;;;29.07;55.39
23446;BME280;11895;48.738;9.320;2022-10-16T14:40:11;98918.34;;;28.39;54.16
23446;BME280;11895;48.738;9.320;2022-10-16T14:42:48;98922.19;;;28.84;54.03
23446;BME280;11895;48.738;9.320;2022-10-16T14:45:50;98923.09;;;28.77;53.60
23446;BME280;11895;48.738;9.320;2022-10-16T14:48:19;98923.41;;;29.05;53.40
23446;BME280;11895;48.738;9.320;2022-10-16T14:50:47;98912.53;;;29.56;52.29
23446;BME280;11895;48.738;9.320;2022-10-16T14:53:15;98914.06;;;30.03;51.51
23446;BME280;11895;48.738;9.320;2022-10-16T14:55:43;98922.66;;;30.37;49.34
23446;BME280;11895;48.738;9.320;2022-10-16T14:58:23;98916.31;;;30.65;51.97
23446;BME280;11895;48.738;9.320;2022-10-16T15:00:55;98924.38;;;30.96;48.53
23446;BME280;11895;48.738;9.320;2022-10-16T15:03:39;98923.47;;;31.17;50.76
23446;BME280;11895;48.738;9.320;2022-10-16T15:06:14;98929.84;;;31.32;48.41
23446;BME280;11895;48.738;9.320;2022-10-16T15:08:42;98933.34;;;31.69;47.52
23446;BME280;11895;48.738;9.320;2022-10-16T15:11:15;98928.69;;;31.48;47.47
23446;BME280;11895;48.738;9.320;2022-10-16T15:13:45;98925.31;;;31.53;47.37
23446;BME280;11895;48.738;9.320;2022-10-16T15:16:14;98930.25;;;31.57;46.50
23446;BME280;11895;48.738;9.320;2022-10-16T15:18:43;98924.19;;;31.26;46.61
23446;BME280;11895;48.738;9.320;2022-10-16T15:21:28;98925.41;;;31.16;48.06
23446;BME280;11895;48.738;9.320;2022-10-16T15:23:58;98928.72;;;31.27;49.23
23446;BME280;11895;48.738;9.320;2022-10-16T15:26:27;98930.44;;;31.56;48.72
23446;BME280;11895;48.738;9.320;2022-10-16T15:28:56;98928.00;;;31.74;47.97
23446;BME280;11895;48.738;9.320;2022-10-16T15:31:23;98932.94;;;31.72;47.84
23446;BME280;11895;48.738;9.320;2022-10-16T15:33:52;98933.59;;;31.46;47.78
23446;BME280;11895;48.738;9.320;2022-10-16T15:36:32;98937.38;;;31.17;51.94
23446;BME280;11895;48.738;9.320;2022-10-16T15:39:21;98932.84;;;29.56;55.16
23446;BME280;11895;48.738;9.320;2022-10-16T15:41:48;98928.44;;;29.77;56.21
23446;BME280;11895;48.738;9.320;2022-10-16T15:44:20;98930.84;;;29.65;58.80
23446;BME280;11895;48.738;9.320;2022-10-16T15:46:49;98933.84;;;29.40;57.75
23446;BME280;11895;48.738;9.320;2022-10-16T15:49:17;98935.38;;;28.82;62.17
23446;BME280;11895;48.738;9.320;2022-10-16T15:51:44;98939.66;;;28.62;61.42
23446;BME280;11895;48.738;9.320;2022-10-16T15:54:37;98949.28;;;27.40;63.31